sensor_id;sensor_type;location;lat;lon;timestamp;pressure;altitude;pressure_sealevel;temperature;humidity
72558;BME280;60583;50.094;8.748;2022-07-19T00:02:26;100832.31;;;22.21;44.09
72558;BME280;60583;50.094;8.748;2022-07-19T00:04:52;100830.44;;;22.22;44.29
72558;BME280;60583;50.094;8.748;2022-07-19T00:07:17;100839.59;;;22.11;44.55
72558;BME280;60583;50.094;8.748;2022-07-19T00:09:42;100835.25;;;22.10;44.77
72558;BME280;60583;50.094;8.748;2022-07-19T00:12:08;100838.25;;;22.13;44.70
72558;BME280;60583;50.094;8.748;2022-07-19T00:14:33;100836.88;;;22.11;44.62
72558;BME280;60583;50.094;8.748;2022-07-19T00:16:58;100825.94;;;22.01;44.74
72558;BME280;60583;50.094;8.748;2022-07-19T00:19:24;100833.09;;;22.12;44.82
72558;BME280;60583;50.094;8.748;2022-07-19T00:21:49;100835.47;;;22.03;45.10
72558;BME280;60583;50.094;8.748;2022-07-19T00:24:15;100836.25;;;21.94;45.55
72558;BME280;60583;50.094;8.748;2022-07-19T00:26:40;100837.31;;;21.93;45.71
72558;BME280;60583;50.094;8.748;2022-07-19T00:29:06;100841.84;;;21.82;46.10
72558;BME280;60583;50.094;8.748;2022-07-19T00:31:31;100837.94;;;21.68;46.33
72558;BME280;60583;50.094;8.748;2022-07-19T00:33:56;100842.16;;;21.54;46.60
72558;BME280;60583;50.094;8.748;2022-07-19T00:36:22;100839.50;;;21.59;46.29
72558;BME280;60583;50.094;8.748;2022-07-19T00:38:47;100839.41;;;21.49;46.53
72558;BME280;60583;50.094;8.748;2022-07-19T00:41:13;100841.53;;;21.42;46.49
72558;BME280;60583;50.094;8.748;2022-07-19T00:43:42;100834.63;;;21.29;47.04
72558;BME280;60583;50.094;8.748;2022-07-19T00:46:12;100844.16;;;21.32;47.05
72558;BME280;60583;50.094;8.748;2022-07-19T00:48:38;100847.94;;;21.31;47.39
72558;BME280;60583;50.094;8.748;2022-07-19T00:51:03;100843.88;;;21.33;47.42
72558;BME280;60583;50.094;8.748;2022-07-19T00:53:29;100840.41;;;21.38;47.32
72558;BME280;60583;50.094;8.748;2022-07-19T00:55:56;100838.94;;;21.25;47.43
72558;BME280;60583;50.094;8.748;2022-07-19T00:58:23;100841.44;;;21.32;47.38
72558;BME280;60583;50.094;8.748;2022-07-19T01:00:50;100837.59;;;21.28;47.52
72558;BME280;60583;50.094;8.748;2022-07-19T01:03:16;100838.66;;;21.22;48.05
72558;BME280;60583;50.094;8.748;2022-07-19T01:05:41;100839.94;;;20.92;48.84
72558;BME280;60583;50.094;8.748;2022-07-19T01:08:08;100843.31;;;21.05;48.26
72558;BME280;60583;50.094;8.748;2022-07-19T01:10:34;100837.47;;;20.91;48.64
72558;BME280;60583;50.094;8.748;2022-07-19T01:12:59;100847.25;;;20.92;48.69
72558;BME280;60583;50.094;8.748;2022-07-19T01:15:26;100843.19;;;20.94;48.71
72558;BME280;60583;50.094;8.748;2022-07-19T01:17:53;100847.50;;;20.90;49.05
72558;BME280;60583;50.094;8.748;2022-07-19T01:20:23;100845.50;;;20.81;49.36
72558;BME280;60583;50.094;8.748;2022-07-19T01:22:48;100843.91;;;20.85;49.30
72558;BME280;60583;50.094;8.748;2022-07-19T01:25:15;100846.28;;;20.76;49.43
72558;BME280;60583;50.094;8.748;2022-07-19T01:27:42;100852.50;;;20.77;49.55
72558;BME280;60583;50.094;8.748;2022-07-19T01:30:12;100834.50;;;20.66;49.68
72558;BME280;60583;50.094;8.748;2022-07-19T01:32:38;100854.59;;;20.70;49.78
72558;BME280;60583;50.094;8.748;2022-07-19T01:35:03;100848.09;;;20.71;49.97
72558;BME280;60583;50.094;8.748;2022-07-19T01:37:29;100847.78;;;20.67;50.03
72558;BME280;60583;50.094;8.748;2022-07-19T01:39:54;100852.44;;;20.72;49.89
72558;BME280;60583;50.094;8.748;2022-07-19T01:42:21;100857.84;;;20.72;50.04
72558;BME280;60583;50.094;8.748;2022-07-19T01:44:49;100855.97;;;20.72;50.10
72558;BME280;60583;50.094;8.748;2022-07-19T01:47:14;100854.41;;;20.76;49.90
72558;BME280;60583;50.094;8.748;2022-07-19T01:49:39;100856.28;;;20.76;49.84
72558;BME280;60583;50.094;8.748;2022-07-19T01:52:05;100848.03;;;20.66;50.47
72558;BME280;60583;50.094;8.748;2022-07-19T01:54:30;100847.50;;;20.64;50.17
72558;BME280;60583;50.094;8.748;2022-07-19T01:56:56;100846.09;;;20.61;50.29
72558;BME280;60583;50.094;8.748;2022-07-19T01:59:21;100838.81;;;20.67;50.37
72558;BME280;60583;50.094;8.748;2022-07-19T02:01:46;100841.94;;;20.54;50.83
72558;BME280;60583;50.094;8.748;2022-07-19T02:04:12;100837.91;;;20.34;51.46
72558;BME280;60583;50.094;8.748;2022-07-19T02:06:37;100831.09;;;20.32;51.69
72558;BME280;60583;50.094;8.748;2022-07-19T02:09:02;100835.66;;;20.26;51.78
72558;BME280;60583;50.094;8.748;2022-07-19T02:11:28;100828.16;;;20.17;52.01
72558;BME280;60583;50.094;8.748;2022-07-19T02:14:07;100834.31;;;20.29;51.57
72558;BME280;60583;50.094;8.748;2022-07-19T02:16:34;100829.22;;;20.32;51.62
72558;BME280;60583;50.094;8.748;2022-07-19T02:19:00;100817.75;;;20.25;51.47
72558;BME280;60583;50.094;8.748;2022-07-19T02:21:26;100839.97;;;20.27;51.69
72558;BME280;60583;50.094;8.748;2022-07-19T02:23:51;100829.63;;;20.24;51.89
72558;BME280;60583;50.094;8.748;2022-07-19T02:26:17;100823.97;;;20.26;51.73
72558;BME280;60583;50.094;8.748;2022-07-19T02:28:42;100832.34;;;20.24;52.00
72558;BME280;60583;50.094;8.748;2022-07-19T02:31:08;100827.75;;;20.25;51.53
72558;BME280;60583;50.094;8.748;2022-07-19T02:33:33;100828.91;;;20.29;51.62
72558;BME280;60583;50.094;8.748;2022-07-19T02:35:59;100825.50;;;20.22;51.71
72558;BME280;60583;50.094;8.748;2022-07-19T02:38:24;100826.25;;;20.17;51.57
72558;BME280;60583;50.094;8.748;2022-07-19T02:40:49;100831.63;;;20.12;52.13
72558;BME280;60583;50.094;8.748;2022-07-19T02:43:15;100822.28;;;20.03;52.47
72558;BME280;60583;50.094;8.748;2022-07-19T02:45:40;100822.84;;;20.05;52.42
72558;BME280;60583;50.094;8.748;2022-07-19T02:48:06;100824.03;;;19.93;52.73
72558;BME280;60583;50.094;8.748;2022-07-19T02:50:32;100816.31;;;20.01;52.61
72558;BME280;60583;50.094;8.748;2022-07-19T02:52:57;100823.06;;;19.99;52.70
72558;BME280;60583;50.094;8.748;2022-07-19T02:55:23;100821.41;;;19.98;52.50
72558;BME280;60583;50.094;8.748;2022-07-19T02:57:48;100827.16;;;20.01;52.54
72558;BME280;60583;50.094;8.748;2022-07-19T03:00:14;100816.31;;;20.01;52.83
72558;BME280;60583;50.094;8.748;2022-07-19T03:02:39;100829.41;;;20.09;52.13
72558;BME280;60583;50.094;8.748;2022-07-19T03:05:06;100823.28;;;19.97;52.53
72558;BME280;60583;50.094;8.748;2022-07-19T03:07:32;100825.16;;;19.97;51.27
72558;BME280;60583;50.094;8.748;2022-07-19T03:09:57;100819.59;;;20.03;50.89
72558;BME280;60583;50.094;8.748;2022-07-19T03:12:23;100821.03;;;20.11;50.12
72558;BME280;60583;50.094;8.748;2022-07-19T03:14:48;100830.91;;;20.00;51.63
72558;BME280;60583;50.094;8.748;2022-07-19T03:17:14;100824.84;;;19.93;52.54
72558;BME280;60583;50.094;8.748;2022-07-19T03:19:39;100830.72;;;19.68;52.93
72558;BME280;60583;50.094;8.748;2022-07-19T03:22:04;100825.19;;;19.80;50.96
72558;BME280;60583;50.094;8.748;2022-07-19T03:24:30;100829.38;;;19.88;50.73
72558;BME280;60583;50.094;8.748;2022-07-19T03:26:55;100829.66;;;20.08;50.13
72558;BME280;60583;50.094;8.748;2022-07-19T03:29:21;100833.69;;;20.05;49.85
72558;BME280;60583;50.094;8.748;2022-07-19T03:31:46;100828.16;;;20.17;49.92
72558;BME280;60583;50.094;8.748;2022-07-19T03:34:11;100825.63;;;20.10;50.53
72558;BME280;60583;50.094;8.748;2022-07-19T03:36:37;100823.00;;;20.15;49.83
72558;BME280;60583;50.094;8.748;2022-07-19T03:39:03;100829.69;;;20.29;49.21
72558;BME280;60583;50.094;8.748;2022-07-19T03:41:28;100828.75;;;20.19;49.41
72558;BME280;60583;50.094;8.748;2022-07-19T03:43:53;100830.06;;;20.16;49.46
72558;BME280;60583;50.094;8.748;2022-07-19T03:46:19;100814.94;;;19.99;50.74
72558;BME280;60583;50.094;8.748;2022-07-19T03:48:46;100834.03;;;19.92;51.44
72558;BME280;60583;50.094;8.748;2022-07-19T03:51:12;100828.31;;;19.89;50.94
72558;BME280;60583;50.094;8.748;2022-07-19T03:53:37;100840.63;;;19.96;50.10
72558;BME280;60583;50.094;8.748;2022-07-19T03:56:03;100834.81;;;20.09;49.67
72558;BME280;60583;50.094;8.748;2022-07-19T03:58:28;100836.47;;;20.10;50.00
72558;BME280;60583;50.094;8.748;2022-07-19T04:00:54;100841.06;;;20.10;50.46
72558;BME280;60583;50.094;8.748;2022-07-19T04:03:19;100838.91;;;20.12;50.41
72558;BME280;60583;50.094;8.748;2022-07-19T04:05:45;100836.97;;;20.07;51.33
72558;BME280;60583;50.094;8.748;2022-07-19T04:08:10;100835.28;;;20.01;51.85
72558;BME280;60583;50.094;8.748;2022-07-19T04:10:36;100836.19;;;19.90;52.13
72558;BME280;60583;50.094;8.748;2022-07-19T04:13:01;100835.69;;;19.93;52.31
72558;BME280;60583;50.094;8.748;2022-07-19T04:15:26;100833.97;;;19.87;52.28
72558;BME280;60583;50.094;8.748;2022-07-19T04:17:52;100832.91;;;19.88;52.80
72558;BME280;60583;50.094;8.748;2022-07-19T04:20:17;100834.59;;;19.94;52.54
72558;BME280;60583;50.094;8.748;2022-07-19T04:22:43;100832.91;;;19.88;52.20
72558;BME280;60583;50.094;8.748;2022-07-19T04:25:09;100838.63;;;19.92;52.68
72558;BME280;60583;50.094;8.748;2022-07-19T04:27:34;100838.13;;;19.95;52.37
72558;BME280;60583;50.094;8.748;2022-07-19T04:30:00;100837.91;;;19.96;52.36
72558;BME280;60583;50.094;8.748;2022-07-19T04:32:25;100838.97;;;19.95;52.37
72558;BME280;60583;50.094;8.748;2022-07-19T04:34:51;100844.38;;;19.95;52.38
72558;BME280;60583;50.094;8.748;2022-07-19T04:37:16;100852.56;;;20.00;52.06
72558;BME280;60583;50.094;8.748;2022-07-19T04:39:42;100852.38;;;20.07;51.85
72558;BME280;60583;50.094;8.748;2022-07-19T04:42:07;100849.44;;;20.08;51.27
72558;BME280;60583;50.094;8.748;2022-07-19T04:44:33;100844.47;;;20.22;50.56
72558;BME280;60583;50.094;8.748;2022-07-19T04:46:59;100841.13;;;20.31;51.06
72558;BME280;60583;50.094;8.748;2022-07-19T04:49:24;100847.59;;;20.30;50.56
72558;BME280;60583;50.094;8.748;2022-07-19T04:51:50;100852.53;;;20.33;50.13
72558;BME280;60583;50.094;8.748;2022-07-19T04:54:15;100840.53;;;20.29;50.14
72558;BME280;60583;50.094;8.748;2022-07-19T04:56:41;100844.97;;;20.35;49.83
72558;BME280;60583;50.094;8.748;2022-07-19T04:59:06;100844.03;;;20.47;49.99
72558;BME280;60583;50.094;8.748;2022-07-19T05:01:32;100846.88;;;20.57;48.85
72558;BME280;60583;50.094;8.748;2022-07-19T05:03:58;100849.63;;;20.62;48.90
72558;BME280;60583;50.094;8.748;2022-07-19T05:06:23;100860.34;;;20.73;48.61
72558;BME280;60583;50.094;8.748;2022-07-19T05:08:50;100849.03;;;20.81;49.04
72558;BME280;60583;50.094;8.748;2022-07-19T05:11:16;100850.88;;;20.76;48.51
72558;BME280;60583;50.094;8.748;2022-07-19T05:13:42;100849.84;;;20.82;48.36
72558;BME280;60583;50.094;8.748;2022-07-19T05:16:07;100849.59;;;20.83;48.68
72558;BME280;60583;50.094;8.748;2022-07-19T05:18:33;100851.28;;;20.89;49.15
72558;BME280;60583;50.094;8.748;2022-07-19T05:20:58;100850.59;;;20.99;48.79
72558;BME280;60583;50.094;8.748;2022-07-19T05:23:23;100842.69;;;20.97;46.81
72558;BME280;60583;50.094;8.748;2022-07-19T05:25:49;100845.81;;;21.06;47.17
72558;BME280;60583;50.094;8.748;2022-07-19T05:28:14;100844.25;;;21.15;46.75
72558;BME280;60583;50.094;8.748;2022-07-19T05:30:40;100849.00;;;21.30;47.16
72558;BME280;60583;50.094;8.748;2022-07-19T05:33:07;100840.16;;;21.39;46.49
72558;BME280;60583;50.094;8.748;2022-07-19T05:35:33;100845.59;;;21.39;46.34
72558;BME280;60583;50.094;8.748;2022-07-19T05:37:58;100847.28;;;21.50;46.14
72558;BME280;60583;50.094;8.748;2022-07-19T05:40:23;100838.72;;;21.63;45.50
72558;BME280;60583;50.094;8.748;2022-07-19T05:42:49;100837.59;;;21.59;45.94
72558;BME280;60583;50.094;8.748;2022-07-19T05:45:14;100839.69;;;21.84;45.69
72558;BME280;60583;50.094;8.748;2022-07-19T05:47:39;100836.31;;;22.04;44.52
72558;BME280;60583;50.094;8.748;2022-07-19T05:50:05;100842.06;;;22.12;44.35
72558;BME280;60583;50.094;8.748;2022-07-19T05:52:31;100835.25;;;22.10;43.86
72558;BME280;60583;50.094;8.748;2022-07-19T05:54:56;100837.16;;;22.09;44.01
72558;BME280;60583;50.094;8.748;2022-07-19T05:57:21;100835.88;;;22.22;44.02
72558;BME280;60583;50.094;8.748;2022-07-19T05:59:47;100840.25;;;22.33;44.50
72558;BME280;60583;50.094;8.748;2022-07-19T06:02:12;100832.06;;;22.28;43.84
72558;BME280;60583;50.094;8.748;2022-07-19T06:04:38;100841.16;;;21.97;44.13
72558;BME280;60583;50.094;8.748;2022-07-19T06:07:03;100848.72;;;21.90;44.42
72558;BME280;60583;50.094;8.748;2022-07-19T06:09:28;100850.88;;;21.93;44.22
72558;BME280;60583;50.094;8.748;2022-07-19T06:11:54;100851.84;;;22.13;44.20
72558;BME280;60583;50.094;8.748;2022-07-19T06:14:20;100857.94;;;22.41;43.65
72558;BME280;60583;50.094;8.748;2022-07-19T06:16:45;100854.47;;;22.50;43.22
72558;BME280;60583;50.094;8.748;2022-07-19T06:19:10;100852.03;;;22.54;42.98
72558;BME280;60583;50.094;8.748;2022-07-19T06:21:37;100852.69;;;22.76;43.16
72558;BME280;60583;50.094;8.748;2022-07-19T06:24:03;100851.34;;;22.83;42.44
72558;BME280;60583;50.094;8.748;2022-07-19T06:26:28;100854.88;;;22.84;42.53
72558;BME280;60583;50.094;8.748;2022-07-19T06:28:54;100850.59;;;23.03;41.96
72558;BME280;60583;50.094;8.748;2022-07-19T06:31:21;100851.72;;;23.27;42.18
72558;BME280;60583;50.094;8.748;2022-07-19T06:33:48;100853.09;;;23.35;41.70
72558;BME280;60583;50.094;8.748;2022-07-19T06:36:14;100848.22;;;23.52;41.27
72558;BME280;60583;50.094;8.748;2022-07-19T06:38:40;100840.31;;;23.71;41.05
72558;BME280;60583;50.094;8.748;2022-07-19T06:41:06;100838.94;;;23.68;40.33
72558;BME280;60583;50.094;8.748;2022-07-19T06:43:32;100844.06;;;24.00;39.94
72558;BME280;60583;50.094;8.748;2022-07-19T06:45:57;100839.97;;;24.02;39.54
72558;BME280;60583;50.094;8.748;2022-07-19T06:48:23;100837.00;;;24.14;39.03
72558;BME280;60583;50.094;8.748;2022-07-19T06:50:48;100837.19;;;24.33;39.01
72558;BME280;60583;50.094;8.748;2022-07-19T06:53:14;100838.25;;;24.47;38.42
72558;BME280;60583;50.094;8.748;2022-07-19T06:55:39;100837.88;;;24.63;38.42
72558;BME280;60583;50.094;8.748;2022-07-19T06:58:04;100841.44;;;24.64;38.40
72558;BME280;60583;50.094;8.748;2022-07-19T07:00:30;100844.34;;;24.83;37.85
72558;BME280;60583;50.094;8.748;2022-07-19T07:02:55;100838.63;;;24.84;37.62
72558;BME280;60583;50.094;8.748;2022-07-19T07:05:21;100841.47;;;25.08;37.56
72558;BME280;60583;50.094;8.748;2022-07-19T07:07:46;100847.75;;;25.08;37.48
72558;BME280;60583;50.094;8.748;2022-07-19T07:10:13;100850.34;;;25.28;37.38
72558;BME280;60583;50.094;8.748;2022-07-19T07:12:38;100854.59;;;25.45;36.97
72558;BME280;60583;50.094;8.748;2022-07-19T07:15:05;100857.72;;;25.67;36.67
72558;BME280;60583;50.094;8.748;2022-07-19T07:17:31;100852.06;;;25.87;36.25
72558;BME280;60583;50.094;8.748;2022-07-19T07:19:56;100853.66;;;25.88;36.19
72558;BME280;60583;50.094;8.748;2022-07-19T07:22:22;100843.53;;;25.65;36.29
72558;BME280;60583;50.094;8.748;2022-07-19T07:24:47;100841.63;;;25.65;36.14
72558;BME280;60583;50.094;8.748;2022-07-19T07:27:13;100855.00;;;25.90;35.56
72558;BME280;60583;50.094;8.748;2022-07-19T07:29:38;100847.41;;;26.16;35.66
72558;BME280;60583;50.094;8.748;2022-07-19T07:32:04;100840.09;;;26.35;35.26
72558;BME280;60583;50.094;8.748;2022-07-19T07:34:29;100844.47;;;26.55;34.93
72558;BME280;60583;50.094;8.748;2022-07-19T07:36:54;100837.81;;;26.85;34.27
72558;BME280;60583;50.094;8.748;2022-07-19T07:39:20;100837.81;;;27.03;33.96
72558;BME280;60583;50.094;8.748;2022-07-19T07:41:45;100834.03;;;27.18;32.93
72558;BME280;60583;50.094;8.748;2022-07-19T07:44:10;100821.66;;;27.20;32.71
72558;BME280;60583;50.094;8.748;2022-07-19T07:46:36;100833.66;;;27.43;32.80
72558;BME280;60583;50.094;8.748;2022-07-19T07:49:01;100831.09;;;27.65;32.31
72558;BME280;60583;50.094;8.748;2022-07-19T07:51:27;100829.63;;;27.87;32.01
72558;BME280;60583;50.094;8.748;2022-07-19T07:53:52;100821.16;;;27.83;32.26
72558;BME280;60583;50.094;8.748;2022-07-19T07:56:18;100822.34;;;28.09;31.69
72558;BME280;60583;50.094;8.748;2022-07-19T07:58:43;100822.03;;;28.11;31.14
72558;BME280;60583;50.094;8.748;2022-07-19T08:01:09;100823.78;;;28.34;30.60
72558;BME280;60583;50.094;8.748;2022-07-19T08:03:34;100824.78;;;28.52;30.41
72558;BME280;60583;50.094;8.748;2022-07-19T08:06:00;100829.03;;;28.71;30.80
72558;BME280;60583;50.094;8.748;2022-07-19T08:08:25;100822.50;;;28.81;29.78
72558;BME280;60583;50.094;8.748;2022-07-19T08:10:55;100815.66;;;28.92;30.01
72558;BME280;60583;50.094;8.748;2022-07-19T08:13:21;100821.56;;;29.21;29.78
72558;BME280;60583;50.094;8.748;2022-07-19T08:15:46;100815.00;;;29.31;29.11
72558;BME280;60583;50.094;8.748;2022-07-19T08:18:12;100815.94;;;29.48;28.21
72558;BME280;60583;50.094;8.748;2022-07-19T08:20:37;100814.91;;;29.58;28.46
72558;BME280;60583;50.094;8.748;2022-07-19T08:23:02;100814.16;;;29.75;28.10
72558;BME280;60583;50.094;8.748;2022-07-19T08:25:28;100814.25;;;29.83;27.75
72558;BME280;60583;50.094;8.748;2022-07-19T08:27:53;100818.19;;;29.91;27.75
72558;BME280;60583;50.094;8.748;2022-07-19T08:30:19;100813.09;;;30.15;27.56
72558;BME280;60583;50.094;8.748;2022-07-19T08:32:44;100802.44;;;30.30;26.49
72558;BME280;60583;50.094;8.748;2022-07-19T08:35:10;100787.78;;;30.44;26.30
72558;BME280;60583;50.094;8.748;2022-07-19T08:37:36;100785.69;;;30.58;26.09
72558;BME280;60583;50.094;8.748;2022-07-19T08:40:03;100787.63;;;30.74;25.19
72558;BME280;60583;50.094;8.748;2022-07-19T08:42:29;100795.41;;;30.89;25.51
72558;BME280;60583;50.094;8.748;2022-07-19T08:44:56;100788.00;;;31.16;25.17
72558;BME280;60583;50.094;8.748;2022-07-19T08:47:25;100789.25;;;31.44;24.73
72558;BME280;60583;50.094;8.748;2022-07-19T08:49:51;100786.84;;;31.51;24.03
72558;BME280;60583;50.094;8.748;2022-07-19T08:52:18;100788.28;;;31.48;24.54
72558;BME280;60583;50.094;8.748;2022-07-19T08:54:44;100786.94;;;31.63;23.60
72558;BME280;60583;50.094;8.748;2022-07-19T08:57:10;100786.31;;;31.66;23.88
72558;BME280;60583;50.094;8.748;2022-07-19T08:59:54;100789.91;;;31.96;23.62
72558;BME280;60583;50.094;8.748;2022-07-19T09:02:19;100787.63;;;31.98;23.01
72558;BME280;60583;50.094;8.748;2022-07-19T09:04:59;100784.75;;;31.86;23.28
72558;BME280;60583;50.094;8.748;2022-07-19T09:07:24;100787.00;;;32.01;23.30
72558;BME280;60583;50.094;8.748;2022-07-19T09:09:50;100788.28;;;32.33;22.52
72558;BME280;60583;50.094;8.748;2022-07-19T09:12:15;100786.66;;;32.61;22.66
72558;BME280;60583;50.094;8.748;2022-07-19T09:14:40;100782.03;;;32.73;22.47
72558;BME280;60583;50.094;8.748;2022-07-19T09:17:11;100778.38;;;32.61;22.53
72558;BME280;60583;50.094;8.748;2022-07-19T09:19:43;100778.31;;;32.69;22.41
72558;BME280;60583;50.094;8.748;2022-07-19T09:22:16;100775.28;;;32.83;21.00
72558;BME280;60583;50.094;8.748;2022-07-19T09:24:47;100769.47;;;32.97;22.24
72558;BME280;60583;50.094;8.748;2022-07-19T09:27:16;100776.50;;;33.15;20.43
72558;BME280;60583;50.094;8.748;2022-07-19T09:29:45;100774.97;;;33.38;20.90
72558;BME280;60583;50.094;8.748;2022-07-19T09:32:18;100772.00;;;33.43;20.62
72558;BME280;60583;50.094;8.748;2022-07-19T09:34:55;100761.03;;;33.47;20.69
72558;BME280;60583;50.094;8.748;2022-07-19T09:37:22;100766.16;;;33.69;19.93
72558;BME280;60583;50.094;8.748;2022-07-19T09:39:52;100759.13;;;33.71;19.95
72558;BME280;60583;50.094;8.748;2022-07-19T09:42:22;100756.50;;;33.99;19.89
72558;BME280;60583;50.094;8.748;2022-07-19T09:44:57;100748.44;;;34.30;20.21
72558;BME280;60583;50.094;8.748;2022-07-19T09:47:31;100741.25;;;34.41;19.39
72558;BME280;60583;50.094;8.748;2022-07-19T09:49:57;100745.06;;;34.61;18.71
72558;BME280;60583;50.094;8.748;2022-07-19T09:52:23;100757.53;;;34.55;18.89
72558;BME280;60583;50.094;8.748;2022-07-19T09:54:50;100747.59;;;34.66;18.54
72558;BME280;60583;50.094;8.748;2022-07-19T09:57:20;100745.38;;;34.72;18.41
72558;BME280;60583;50.094;8.748;2022-07-19T09:59:50;100754.34;;;34.81;18.45
72558;BME280;60583;50.094;8.748;2022-07-19T10:02:18;100742.88;;;34.82;17.97
72558;BME280;60583;50.094;8.748;2022-07-19T10:04:46;100737.31;;;34.94;17.74
72558;BME280;60583;50.094;8.748;2022-07-19T10:07:12;100735.97;;;35.16;17.77
72558;BME280;60583;50.094;8.748;2022-07-19T10:09:39;100734.91;;;35.36;17.71
72558;BME280;60583;50.094;8.748;2022-07-19T10:12:05;100738.50;;;35.37;17.54
72558;BME280;60583;50.094;8.748;2022-07-19T10:14:31;100733.78;;;35.68;17.39
72558;BME280;60583;50.094;8.748;2022-07-19T10:17:11;100732.59;;;36.16;16.33
72558;BME280;60583;50.094;8.748;2022-07-19T10:19:45;100723.44;;;36.16;16.02
72558;BME280;60583;50.094;8.748;2022-07-19T10:22:17;100719.09;;;36.34;15.73
72558;BME280;60583;50.094;8.748;2022-07-19T10:27:42;100717.47;;;36.87;15.59
72558;BME280;60583;50.094;8.748;2022-07-19T10:32:37;100713.66;;;37.14;14.84
72558;BME280;60583;50.094;8.748;2022-07-19T10:37:46;100716.22;;;37.68;14.23
72558;BME280;60583;50.094;8.748;2022-07-19T10:40:12;100701.66;;;37.78;13.98
72558;BME280;60583;50.094;8.748;2022-07-19T10:43:07;100704.44;;;37.78;13.50
72558;BME280;60583;50.094;8.748;2022-07-19T10:45:34;100703.59;;;37.51;14.18
72558;BME280;60583;50.094;8.748;2022-07-19T10:48:03;100694.63;;;37.61;13.75
72558;BME280;60583;50.094;8.748;2022-07-19T10:50:52;100690.28;;;37.64;13.78
72558;BME280;60583;50.094;8.748;2022-07-19T10:53:53;100676.84;;;38.22;13.96
72558;BME280;60583;50.094;8.748;2022-07-19T10:56:21;100682.56;;;38.03;13.60
72558;BME280;60583;50.094;8.748;2022-07-19T10:58:57;100677.97;;;37.88;13.10
72558;BME280;60583;50.094;8.748;2022-07-19T11:01:25;100681.91;;;37.19;13.32
72558;BME280;60583;50.094;8.748;2022-07-19T11:03:52;100681.88;;;37.60;13.31
72558;BME280;60583;50.094;8.748;2022-07-19T11:06:26;100665.34;;;37.97;13.09
72558;BME280;60583;50.094;8.748;2022-07-19T11:08:57;100666.34;;;38.12;13.34
72558;BME280;60583;50.094;8.748;2022-07-19T11:11:24;100674.09;;;37.96;13.10
72558;BME280;60583;50.094;8.748;2022-07-19T11:14:04;100648.63;;;38.27;12.96
72558;BME280;60583;50.094;8.748;2022-07-19T11:16:29;100660.34;;;38.36;13.14
72558;BME280;60583;50.094;8.748;2022-07-19T11:19:06;100667.00;;;38.02;13.23
72558;BME280;60583;50.094;8.748;2022-07-19T11:21:32;100650.75;;;38.04;13.48
72558;BME280;60583;50.094;8.748;2022-07-19T11:24:00;100643.97;;;38.64;13.37
72558;BME280;60583;50.094;8.748;2022-07-19T11:26:26;100637.03;;;38.84;12.92
72558;BME280;60583;50.094;8.748;2022-07-19T11:28:52;100656.72;;;38.65;12.42
72558;BME280;60583;50.094;8.748;2022-07-19T11:31:23;100638.41;;;38.68;12.90
72558;BME280;60583;50.094;8.748;2022-07-19T11:33:51;100626.09;;;39.09;12.73
72558;BME280;60583;50.094;8.748;2022-07-19T11:36:18;100623.44;;;38.50;12.34
72558;BME280;60583;50.094;8.748;2022-07-19T11:38:46;100621.81;;;38.15;13.27
72558;BME280;60583;50.094;8.748;2022-07-19T11:41:19;100612.75;;;38.88;12.96
72558;BME280;60583;50.094;8.748;2022-07-19T11:43:53;100617.13;;;39.26;12.43
72558;BME280;60583;50.094;8.748;2022-07-19T11:46:21;100615.06;;;39.20;12.44
72558;BME280;60583;50.094;8.748;2022-07-19T11:48:48;100620.31;;;39.25;12.01
72558;BME280;60583;50.094;8.748;2022-07-19T11:51:13;100615.81;;;39.17;11.84
72558;BME280;60583;50.094;8.748;2022-07-19T11:53:39;100614.97;;;39.13;11.96
72558;BME280;60583;50.094;8.748;2022-07-19T11:56:15;100615.50;;;39.25;11.94
72558;BME280;60583;50.094;8.748;2022-07-19T11:58:42;100617.88;;;39.20;11.78
72558;BME280;60583;50.094;8.748;2022-07-19T12:01:08;100621.34;;;39.13;11.60
72558;BME280;60583;50.094;8.748;2022-07-19T12:03:33;100614.66;;;38.81;12.17
72558;BME280;60583;50.094;8.748;2022-07-19T12:06:04;100601.69;;;38.99;11.44
72558;BME280;60583;50.094;8.748;2022-07-19T12:08:36;100597.81;;;39.11;11.24
72558;BME280;60583;50.094;8.748;2022-07-19T12:11:18;100590.28;;;39.62;11.08
72558;BME280;60583;50.094;8.748;2022-07-19T12:13:44;100595.56;;;39.81;10.84
72558;BME280;60583;50.094;8.748;2022-07-19T12:16:11;100615.16;;;38.90;11.52
72558;BME280;60583;50.094;8.748;2022-07-19T12:24:18;100588.97;;;39.49;11.23
72558;BME280;60583;50.094;8.748;2022-07-19T12:27:05;100591.41;;;38.70;11.80
72558;BME280;60583;50.094;8.748;2022-07-19T12:29:35;100589.22;;;38.53;12.00
72558;BME280;60583;50.094;8.748;2022-07-19T12:40:07;100585.97;;;38.14;11.87
72558;BME280;60583;50.094;8.748;2022-07-19T12:42:59;100560.09;;;37.84;11.45
72558;BME280;60583;50.094;8.748;2022-07-19T12:45:54;100563.63;;;37.54;12.21
72558;BME280;60583;50.094;8.748;2022-07-19T12:48:19;100566.66;;;37.20;12.91
72558;BME280;60583;50.094;8.748;2022-07-19T12:50:47;100572.63;;;36.76;13.62
72558;BME280;60583;50.094;8.748;2022-07-19T12:53:14;100558.72;;;36.54;14.19
72558;BME280;60583;50.094;8.748;2022-07-19T12:55:42;100562.69;;;36.53;13.92
72558;BME280;60583;50.094;8.748;2022-07-19T12:58:11;100547.53;;;36.50;13.87
72558;BME280;60583;50.094;8.748;2022-07-19T13:00:38;100545.69;;;36.38;14.11
72558;BME280;60583;50.094;8.748;2022-07-19T13:03:05;100542.63;;;36.24;14.50
72558;BME280;60583;50.094;8.748;2022-07-19T13:05:32;100539.59;;;36.10;14.90
72558;BME280;60583;50.094;8.748;2022-07-19T13:07:58;100555.09;;;35.96;14.75
72558;BME280;60583;50.094;8.748;2022-07-19T13:10:25;100546.34;;;35.94;14.50
72558;BME280;60583;50.094;8.748;2022-07-19T13:12:51;100532.09;;;35.95;14.89